sensor_id;sensor_type;location;lat;lon;timestamp;P1;durP1;ratioP1;P2;durP2;ratioP2
6089;SDS011;3073;42.660;23.316;2023-05-23T00:01:45;11.87;;;8.10;;
6089;SDS011;3073;42.660;23.316;2023-05-23T00:04:11;11.17;;;7.23;;
6089;SDS011;3073;42.660;23.316;2023-05-23T00:06:42;9.63;;;7.00;;
6089;SDS011;3073;42.660;23.316;2023-05-23T00:09:11;10.23;;;6.80;;
6089;SDS011;3073;42.660;23.316;2023-05-23T00:11:39;9.30;;;6.63;;
6089;SDS011;3073;42.660;23.316;2023-05-23T00:14:11;10.27;;;6.80;;
6089;SDS011;3073;42.660;23.316;2023-05-23T00:16:39;7.50;;;5.90;;
6089;SDS011;3073;42.660;23.316;2023-05-23T00:19:07;10.40;;;6.50;;
6089;SDS011;3073;42.660;23.316;2023-05-23T00:21:35;12.13;;;7.40;;
6089;SDS011;3073;42.660;23.316;2023-05-23T00:24:02;10.73;;;6.90;;
6089;SDS011;3073;42.660;23.316;2023-05-23T00:26:29;10.20;;;6.87;;
6089;SDS011;3073;42.660;23.316;2023-05-23T00:28:57;12.40;;;7.70;;
6089;SDS011;3073;42.660;23.316;2023-05-23T00:31:25;20.20;;;7.13;;
6089;SDS011;3073;42.660;23.316;2023-05-23T00:33:52;9.80;;;7.43;;
6089;SDS011;3073;42.660;23.316;2023-05-23T00:36:19;10.73;;;7.47;;
6089;SDS011;3073;42.660;23.316;2023-05-23T00:38:48;13.03;;;8.00;;
6089;SDS011;3073;42.660;23.316;2023-05-23T00:41:15;12.53;;;7.77;;
6089;SDS011;3073;42.660;23.316;2023-05-23T00:43:43;12.83;;;8.13;;
6089;SDS011;3073;42.660;23.316;2023-05-23T00:46:10;8.97;;;7.03;;
6089;SDS011;3073;42.660;23.316;2023-05-23T00:48:39;9.80;;;6.83;;
6089;SDS011;3073;42.660;23.316;2023-05-23T00:51:06;11.50;;;6.63;;
6089;SDS011;3073;42.660;23.316;2023-05-23T00:53:33;8.23;;;6.17;;
6089;SDS011;3073;42.660;23.316;2023-05-23T00:56:01;8.27;;;6.37;;
6089;SDS011;3073;42.660;23.316;2023-05-23T00:58:28;10.90;;;6.43;;
6089;SDS011;3073;42.660;23.316;2023-05-23T01:00:56;8.87;;;5.40;;
6089;SDS011;3073;42.660;23.316;2023-05-23T01:03:24;9.53;;;4.73;;
6089;SDS011;3073;42.660;23.316;2023-05-23T01:05:54;7.03;;;4.47;;
6089;SDS011;3073;42.660;23.316;2023-05-23T01:08:21;5.43;;;4.17;;
6089;SDS011;3073;42.660;23.316;2023-05-23T01:10:48;9.13;;;4.93;;
6089;SDS011;3073;42.660;23.316;2023-05-23T01:13:19;5.20;;;3.87;;
6089;SDS011;3073;42.660;23.316;2023-05-23T01:15:54;4.43;;;3.30;;
6089;SDS011;3073;42.660;23.316;2023-05-23T01:18:25;7.33;;;4.17;;
6089;SDS011;3073;42.660;23.316;2023-05-23T01:20:58;4.77;;;3.40;;
6089;SDS011;3073;42.660;23.316;2023-05-23T01:23:35;8.90;;;4.60;;
6089;SDS011;3073;42.660;23.316;2023-05-23T01:26:21;6.00;;;3.93;;
6089;SDS011;3073;42.660;23.316;2023-05-23T01:29:02;4.07;;;3.60;;
6089;SDS011;3073;42.660;23.316;2023-05-23T01:31:35;4.70;;;3.33;;
6089;SDS011;3073;42.660;23.316;2023-05-23T01:34:03;6.13;;;3.53;;
6089;SDS011;3073;42.660;23.316;2023-05-23T01:36:32;7.07;;;4.07;;
6089;SDS011;3073;42.660;23.316;2023-05-23T01:39:00;5.00;;;3.83;;
6089;SDS011;3073;42.660;23.316;2023-05-23T01:41:27;5.93;;;4.40;;
6089;SDS011;3073;42.660;23.316;2023-05-23T01:43:54;4.63;;;3.50;;
6089;SDS011;3073;42.660;23.316;2023-05-23T01:46:22;7.20;;;4.60;;
6089;SDS011;3073;42.660;23.316;2023-05-23T01:48:52;4.73;;;4.00;;
6089;SDS011;3073;42.660;23.316;2023-05-23T01:51:21;16.70;;;4.20;;
6089;SDS011;3073;42.660;23.316;2023-05-23T01:53:48;7.37;;;4.60;;
6089;SDS011;3073;42.660;23.316;2023-05-23T01:56:16;11.47;;;8.03;;
6089;SDS011;3073;42.660;23.316;2023-05-23T01:58:43;36.50;;;23.37;;
6089;SDS011;3073;42.660;23.316;2023-05-23T02:01:10;14.07;;;8.00;;
6089;SDS011;3073;42.660;23.316;2023-05-23T02:03:38;9.10;;;6.90;;
6089;SDS011;3073;42.660;23.316;2023-05-23T02:06:06;6.07;;;4.80;;
6089;SDS011;3073;42.660;23.316;2023-05-23T02:08:33;8.47;;;4.90;;
6089;SDS011;3073;42.660;23.316;2023-05-23T02:10:59;6.60;;;4.73;;
6089;SDS011;3073;42.660;23.316;2023-05-23T02:13:26;5.40;;;4.53;;
6089;SDS011;3073;42.660;23.316;2023-05-23T02:15:53;13.47;;;6.37;;
6089;SDS011;3073;42.660;23.316;2023-05-23T02:18:20;10.83;;;7.10;;
6089;SDS011;3073;42.660;23.316;2023-05-23T02:20:51;13.73;;;9.23;;
6089;SDS011;3073;42.660;23.316;2023-05-23T02:23:18;15.23;;;9.10;;
6089;SDS011;3073;42.660;23.316;2023-05-23T02:25:45;20.83;;;11.53;;
6089;SDS011;3073;42.660;23.316;2023-05-23T02:28:12;24.63;;;13.50;;
6089;SDS011;3073;42.660;23.316;2023-05-23T02:30:39;36.93;;;10.73;;
6089;SDS011;3073;42.660;23.316;2023-05-23T02:33:06;24.60;;;10.93;;
6089;SDS011;3073;42.660;23.316;2023-05-23T02:35:33;46.13;;;11.30;;
6089;SDS011;3073;42.660;23.316;2023-05-23T02:38:01;42.77;;;11.20;;
6089;SDS011;3073;42.660;23.316;2023-05-23T02:40:28;23.37;;;11.93;;
6089;SDS011;3073;42.660;23.316;2023-05-23T02:42:55;21.00;;;12.20;;
6089;SDS011;3073;42.660;23.316;2023-05-23T02:45:22;34.80;;;11.60;;
6089;SDS011;3073;42.660;23.316;2023-05-23T02:47:49;31.20;;;11.20;;
6089;SDS011;3073;42.660;23.316;2023-05-23T02:50:16;19.80;;;11.97;;
6089;SDS011;3073;42.660;23.316;2023-05-23T02:52:43;18.83;;;11.93;;
6089;SDS011;3073;42.660;23.316;2023-05-23T02:55:11;18.73;;;11.70;;
6089;SDS011;3073;42.660;23.316;2023-05-23T02:57:38;16.60;;;10.93;;
6089;SDS011;3073;42.660;23.316;2023-05-23T03:00:06;18.03;;;10.00;;
6089;SDS011;3073;42.660;23.316;2023-05-23T03:02:34;18.50;;;10.20;;
6089;SDS011;3073;42.660;23.316;2023-05-23T03:05:01;19.43;;;9.20;;
6089;SDS011;3073;42.660;23.316;2023-05-23T03:07:28;15.73;;;10.00;;
6089;SDS011;3073;42.660;23.316;2023-05-23T03:09:58;16.30;;;9.67;;
6089;SDS011;3073;42.660;23.316;2023-05-23T03:12:26;14.83;;;10.40;;
6089;SDS011;3073;42.660;23.316;2023-05-23T03:14:53;27.90;;;11.20;;
6089;SDS011;3073;42.660;23.316;2023-05-23T03:17:20;17.30;;;9.23;;
6089;SDS011;3073;42.660;23.316;2023-05-23T03:19:47;22.53;;;9.57;;
6089;SDS011;3073;42.660;23.316;2023-05-23T03:22:14;18.03;;;9.20;;
6089;SDS011;3073;42.660;23.316;2023-05-23T03:24:40;13.63;;;9.47;;
6089;SDS011;3073;42.660;23.316;2023-05-23T03:27:07;12.87;;;9.27;;
6089;SDS011;3073;42.660;23.316;2023-05-23T03:29:35;20.43;;;9.13;;
6089;SDS011;3073;42.660;23.316;2023-05-23T03:32:02;19.43;;;10.03;;
6089;SDS011;3073;42.660;23.316;2023-05-23T03:34:30;17.37;;;10.10;;
6089;SDS011;3073;42.660;23.316;2023-05-23T03:36:58;18.17;;;9.73;;
6089;SDS011;3073;42.660;23.316;2023-05-23T03:39:25;18.50;;;10.13;;
6089;SDS011;3073;42.660;23.316;2023-05-23T03:41:52;23.60;;;10.20;;
6089;SDS011;3073;42.660;23.316;2023-05-23T03:44:18;27.20;;;11.40;;
6089;SDS011;3073;42.660;23.316;2023-05-23T03:46:47;32.33;;;10.97;;
6089;SDS011;3073;42.660;23.316;2023-05-23T03:49:14;29.37;;;11.00;;
6089;SDS011;3073;42.660;23.316;2023-05-23T03:51:40;30.57;;;12.47;;
6089;SDS011;3073;42.660;23.316;2023-05-23T03:54:07;32.57;;;13.70;;
6089;SDS011;3073;42.660;23.316;2023-05-23T03:56:34;27.30;;;11.83;;
6089;SDS011;3073;42.660;23.316;2023-05-23T03:59:01;30.77;;;11.77;;
6089;SDS011;3073;42.660;23.316;2023-05-23T04:01:27;30.80;;;11.37;;
6089;SDS011;3073;42.660;23.316;2023-05-23T04:03:56;28.07;;;11.03;;
6089;SDS011;3073;42.660;23.316;2023-05-23T04:06:24;25.50;;;12.30;;
6089;SDS011;3073;42.660;23.316;2023-05-23T04:08:51;19.07;;;12.47;;
6089;SDS011;3073;42.660;23.316;2023-05-23T04:11:18;29.10;;;12.83;;
6089;SDS011;3073;42.660;23.316;2023-05-23T04:13:46;30.50;;;13.13;;
6089;SDS011;3073;42.660;23.316;2023-05-23T04:16:13;28.67;;;13.37;;
6089;SDS011;3073;42.660;23.316;2023-05-23T04:18:40;34.93;;;14.07;;
6089;SDS011;3073;42.660;23.316;2023-05-23T04:21:09;31.93;;;13.23;;
6089;SDS011;3073;42.660;23.316;2023-05-23T04:23:35;32.80;;;13.37;;
6089;SDS011;3073;42.660;23.316;2023-05-23T04:26:02;40.90;;;14.27;;
6089;SDS011;3073;42.660;23.316;2023-05-23T04:28:30;27.73;;;14.47;;
6089;SDS011;3073;42.660;23.316;2023-05-23T04:30:57;32.87;;;15.53;;
6089;SDS011;3073;42.660;23.316;2023-05-23T04:33:23;40.33;;;17.20;;
6089;SDS011;3073;42.660;23.316;2023-05-23T04:35:52;31.17;;;16.13;;
6089;SDS011;3073;42.660;23.316;2023-05-23T04:38:20;35.17;;;14.90;;
6089;SDS011;3073;42.660;23.316;2023-05-23T04:40:49;33.70;;;16.60;;
6089;SDS011;3073;42.660;23.316;2023-05-23T04:43:16;35.87;;;17.43;;
6089;SDS011;3073;42.660;23.316;2023-05-23T04:45:44;48.87;;;18.33;;
6089;SDS011;3073;42.660;23.316;2023-05-23T04:48:11;35.00;;;18.90;;
6089;SDS011;3073;42.660;23.316;2023-05-23T04:50:41;53.63;;;16.47;;
6089;SDS011;3073;42.660;23.316;2023-05-23T04:53:11;32.10;;;17.63;;
6089;SDS011;3073;42.660;23.316;2023-05-23T04:55:40;26.93;;;15.50;;
6089;SDS011;3073;42.660;23.316;2023-05-23T04:58:07;34.00;;;17.63;;
6089;SDS011;3073;42.660;23.316;2023-05-23T05:00:34;28.43;;;16.37;;
6089;SDS011;3073;42.660;23.316;2023-05-23T05:03:01;46.33;;;16.27;;
6089;SDS011;3073;42.660;23.316;2023-05-23T05:05:28;32.80;;;18.20;;
6089;SDS011;3073;42.660;23.316;2023-05-23T05:07:54;31.20;;;17.27;;
6089;SDS011;3073;42.660;23.316;2023-05-23T05:10:21;36.53;;;17.97;;
6089;SDS011;3073;42.660;23.316;2023-05-23T05:12:50;29.50;;;19.10;;
6089;SDS011;3073;42.660;23.316;2023-05-23T05:15:17;38.30;;;17.97;;
6089;SDS011;3073;42.660;23.316;2023-05-23T05:17:50;40.13;;;18.00;;
6089;SDS011;3073;42.660;23.316;2023-05-23T05:20:17;34.00;;;18.50;;
6089;SDS011;3073;42.660;23.316;2023-05-23T05:22:45;33.97;;;16.30;;
6089;SDS011;3073;42.660;23.316;2023-05-23T05:25:12;39.93;;;18.10;;
6089;SDS011;3073;42.660;23.316;2023-05-23T05:27:40;30.43;;;17.00;;
6089;SDS011;3073;42.660;23.316;2023-05-23T05:30:09;31.00;;;17.67;;
6089;SDS011;3073;42.660;23.316;2023-05-23T05:32:36;38.33;;;16.83;;
6089;SDS011;3073;42.660;23.316;2023-05-23T05:35:06;34.47;;;16.90;;
6089;SDS011;3073;42.660;23.316;2023-05-23T05:37:38;32.20;;;18.40;;
6089;SDS011;3073;42.660;23.316;2023-05-23T05:40:05;34.80;;;19.77;;
6089;SDS011;3073;42.660;23.316;2023-05-23T05:42:34;33.00;;;20.20;;
6089;SDS011;3073;42.660;23.316;2023-05-23T05:45:01;37.37;;;19.70;;
6089;SDS011;3073;42.660;23.316;2023-05-23T05:47:32;37.13;;;17.23;;
6089;SDS011;3073;42.660;23.316;2023-05-23T05:49:59;36.60;;;17.50;;
6089;SDS011;3073;42.660;23.316;2023-05-23T05:52:25;37.97;;;18.77;;
6089;SDS011;3073;42.660;23.316;2023-05-23T05:54:52;37.50;;;19.23;;
6089;SDS011;3073;42.660;23.316;2023-05-23T05:57:19;34.60;;;18.43;;
6089;SDS011;3073;42.660;23.316;2023-05-23T05:59:46;33.50;;;18.10;;
6089;SDS011;3073;42.660;23.316;2023-05-23T06:02:13;31.20;;;17.77;;
6089;SDS011;3073;42.660;23.316;2023-05-23T06:04:41;36.13;;;18.83;;
6089;SDS011;3073;42.660;23.316;2023-05-23T06:07:08;29.43;;;16.50;;
6089;SDS011;3073;42.660;23.316;2023-05-23T06:09:35;32.53;;;16.70;;
6089;SDS011;3073;42.660;23.316;2023-05-23T06:12:06;33.00;;;17.97;;
6089;SDS011;3073;42.660;23.316;2023-05-23T06:14:33;29.07;;;16.17;;
6089;SDS011;3073;42.660;23.316;2023-05-23T06:17:00;30.77;;;17.67;;
6089;SDS011;3073;42.660;23.316;2023-05-23T06:19:28;28.00;;;17.43;;
6089;SDS011;3073;42.660;23.316;2023-05-23T06:21:56;31.53;;;16.77;;
6089;SDS011;3073;42.660;23.316;2023-05-23T06:24:23;32.43;;;17.00;;
6089;SDS011;3073;42.660;23.316;2023-05-23T06:26:49;27.37;;;15.97;;
6089;SDS011;3073;42.660;23.316;2023-05-23T06:29:16;33.40;;;16.43;;
6089;SDS011;3073;42.660;23.316;2023-05-23T06:31:43;30.43;;;17.70;;
6089;SDS011;3073;42.660;23.316;2023-05-23T06:34:10;30.40;;;16.70;;
6089;SDS011;3073;42.660;23.316;2023-05-23T06:36:37;32.10;;;16.33;;
6089;SDS011;3073;42.660;23.316;2023-05-23T06:39:06;39.27;;;16.43;;
6089;SDS011;3073;42.660;23.316;2023-05-23T06:41:34;26.87;;;15.10;;
6089;SDS011;3073;42.660;23.316;2023-05-23T06:44:01;26.47;;;15.90;;
6089;SDS011;3073;42.660;23.316;2023-05-23T06:46:28;26.30;;;16.17;;
6089;SDS011;3073;42.660;23.316;2023-05-23T06:48:54;27.37;;;16.80;;
6089;SDS011;3073;42.660;23.316;2023-05-23T06:51:22;28.90;;;17.30;;
6089;SDS011;3073;42.660;23.316;2023-05-23T06:53:48;25.53;;;16.47;;
6089;SDS011;3073;42.660;23.316;2023-05-23T06:56:17;30.10;;;16.50;;
6089;SDS011;3073;42.660;23.316;2023-05-23T06:58:43;29.40;;;15.73;;
6089;SDS011;3073;42.660;23.316;2023-05-23T07:01:10;28.10;;;15.57;;
6089;SDS011;3073;42.660;23.316;2023-05-23T07:03:37;29.30;;;16.17;;
6089;SDS011;3073;42.660;23.316;2023-05-23T07:06:06;26.97;;;16.30;;
6089;SDS011;3073;42.660;23.316;2023-05-23T07:08:34;28.40;;;16.73;;
6089;SDS011;3073;42.660;23.316;2023-05-23T07:11:01;27.97;;;14.70;;
6089;SDS011;3073;42.660;23.316;2023-05-23T07:13:30;28.47;;;14.93;;
6089;SDS011;3073;42.660;23.316;2023-05-23T07:15:57;26.47;;;14.73;;
6089;SDS011;3073;42.660;23.316;2023-05-23T07:18:24;23.20;;;13.87;;
6089;SDS011;3073;42.660;23.316;2023-05-23T07:20:51;29.10;;;15.13;;
6089;SDS011;3073;42.660;23.316;2023-05-23T07:23:18;22.57;;;13.77;;
6089;SDS011;3073;42.660;23.316;2023-05-23T07:25:44;30.10;;;14.00;;
6089;SDS011;3073;42.660;23.316;2023-05-23T07:28:11;18.87;;;13.20;;
6089;SDS011;3073;42.660;23.316;2023-05-23T07:30:40;17.77;;;12.10;;
6089;SDS011;3073;42.660;23.316;2023-05-23T07:33:08;23.30;;;11.63;;
6089;SDS011;3073;42.660;23.316;2023-05-23T07:35:39;18.33;;;11.30;;
6089;SDS011;3073;42.660;23.316;2023-05-23T07:38:06;19.85;;;11.55;;
6089;SDS011;3073;42.660;23.316;2023-05-23T07:40:35;20.63;;;11.82;;
6089;SDS011;3073;42.660;23.316;2023-05-23T07:43:05;21.60;;;11.48;;
6089;SDS011;3073;42.660;23.316;2023-05-23T07:45:32;20.27;;;10.65;;
6089;SDS011;3073;42.660;23.316;2023-05-23T07:48:00;29.75;;;12.90;;
6089;SDS011;3073;42.660;23.316;2023-05-23T07:50:27;19.50;;;12.60;;
6089;SDS011;3073;42.660;23.316;2023-05-23T07:52:54;20.77;;;12.32;;
6089;SDS011;3073;42.660;23.316;2023-05-23T07:55:21;18.40;;;11.50;;
6089;SDS011;3073;42.660;23.316;2023-05-23T07:57:48;18.75;;;11.63;;
6089;SDS011;3073;42.660;23.316;2023-05-23T08:00:15;19.48;;;10.30;;
6089;SDS011;3073;42.660;23.316;2023-05-23T08:02:42;16.05;;;10.70;;
6089;SDS011;3073;42.660;23.316;2023-05-23T08:05:11;20.48;;;12.27;;
6089;SDS011;3073;42.660;23.316;2023-05-23T08:07:38;17.63;;;10.55;;
6089;SDS011;3073;42.660;23.316;2023-05-23T08:10:05;18.20;;;10.60;;
6089;SDS011;3073;42.660;23.316;2023-05-23T08:12:33;16.45;;;11.25;;
6089;SDS011;3073;42.660;23.316;2023-05-23T08:14:59;22.77;;;10.57;;
6089;SDS011;3073;42.660;23.316;2023-05-23T08:17:27;17.80;;;11.63;;
6089;SDS011;3073;42.660;23.316;2023-05-23T08:19:54;17.30;;;10.80;;
6089;SDS011;3073;42.660;23.316;2023-05-23T08:22:23;14.90;;;10.15;;
6089;SDS011;3073;42.660;23.316;2023-05-23T08:24:49;13.45;;;8.05;;
6089;SDS011;3073;42.660;23.316;2023-05-23T08:27:19;15.85;;;10.40;;
6089;SDS011;3073;42.660;23.316;2023-05-23T08:30:00;11.85;;;8.57;;
6089;SDS011;3073;42.660;23.316;2023-05-23T08:32:29;15.68;;;8.98;;
6089;SDS011;3073;42.660;23.316;2023-05-23T08:34:57;10.27;;;7.85;;
6089;SDS011;3073;42.660;23.316;2023-05-23T08:37:26;18.90;;;9.05;;
6089;SDS011;3073;42.660;23.316;2023-05-23T08:39:52;12.15;;;7.35;;
6089;SDS011;3073;42.660;23.316;2023-05-23T08:42:19;15.07;;;8.50;;
6089;SDS011;3073;42.660;23.316;2023-05-23T08:44:46;12.90;;;8.07;;
6089;SDS011;3073;42.660;23.316;2023-05-23T08:47:15;12.30;;;7.63;;
6089;SDS011;3073;42.660;23.316;2023-05-23T08:49:43;24.52;;;7.32;;
6089;SDS011;3073;42.660;23.316;2023-05-23T08:52:11;10.48;;;6.32;;
6089;SDS011;3073;42.660;23.316;2023-05-23T08:54:41;10.75;;;7.07;;
6089;SDS011;3073;42.660;23.316;2023-05-23T08:57:08;13.00;;;6.07;;
6089;SDS011;3073;42.660;23.316;2023-05-23T08:59:41;10.02;;;6.45;;
6089;SDS011;3073;42.660;23.316;2023-05-23T09:02:09;8.25;;;6.20;;
6089;SDS011;3073;42.660;23.316;2023-05-23T09:04:37;7.20;;;5.63;;
6089;SDS011;3073;42.660;23.316;2023-05-23T09:07:04;8.45;;;5.68;;
6089;SDS011;3073;42.660;23.316;2023-05-23T09:09:31;9.00;;;5.35;;
6089;SDS011;3073;42.660;23.316;2023-05-23T09:12:00;10.63;;;5.55;;
6089;SDS011;3073;42.660;23.316;2023-05-23T09:14:27;17.63;;;5.45;;
6089;SDS011;3073;42.660;23.316;2023-05-23T09:16:59;9.60;;;5.93;;
6089;SDS011;3073;42.660;23.316;2023-05-23T09:19:29;12.40;;;6.43;;
6089;SDS011;3073;42.660;23.316;2023-05-23T09:21:56;10.38;;;5.32;;
6089;SDS011;3073;42.660;23.316;2023-05-23T09:24:29;12.18;;;6.72;;
6089;SDS011;3073;42.660;23.316;2023-05-23T09:27:00;8.55;;;5.60;;
6089;SDS011;3073;42.660;23.316;2023-05-23T09:29:27;7.93;;;4.75;;
6089;SDS011;3073;42.660;23.316;2023-05-23T09:31:58;5.32;;;4.05;;
6089;SDS011;3073;42.660;23.316;2023-05-23T09:34:26;11.88;;;4.28;;
6089;SDS011;3073;42.660;23.316;2023-05-23T09:36:53;11.00;;;4.55;;
6089;SDS011;3073;42.660;23.316;2023-05-23T09:39:21;3.80;;;2.97;;
6089;SDS011;3073;42.660;23.316;2023-05-23T09:41:47;4.20;;;3.50;;
6089;SDS011;3073;42.660;23.316;2023-05-23T09:44:21;6.25;;;3.42;;
6089;SDS011;3073;42.660;23.316;2023-05-23T09:46:49;4.55;;;3.38;;
6089;SDS011;3073;42.660;23.316;2023-05-23T09:49:17;7.10;;;3.63;;
6089;SDS011;3073;42.660;23.316;2023-05-23T09:51:55;6.40;;;3.38;;
6089;SDS011;3073;42.660;23.316;2023-05-23T09:54:23;5.50;;;3.58;;
6089;SDS011;3073;42.660;23.316;2023-05-23T09:56:50;4.15;;;2.90;;
6089;SDS011;3073;42.660;23.316;2023-05-23T09:59:21;6.70;;;3.20;;
6089;SDS011;3073;42.660;23.316;2023-05-23T10:01:50;6.00;;;3.50;;
6089;SDS011;3073;42.660;23.316;2023-05-23T10:04:18;6.53;;;3.22;;
6089;SDS011;3073;42.660;23.316;2023-05-23T10:06:48;6.38;;;3.30;;
6089;SDS011;3073;42.660;23.316;2023-05-23T10:09:19;4.13;;;3.00;;
6089;SDS011;3073;42.660;23.316;2023-05-23T10:15:00;5.50;;;3.47;;
6089;SDS011;3073;42.660;23.316;2023-05-23T10:17:30;3.85;;;3.05;;
6089;SDS011;3073;42.660;23.316;2023-05-23T10:20:03;9.50;;;4.05;;
6089;SDS011;3073;42.660;23.316;2023-05-23T10:22:33;3.60;;;2.97;;
6089;SDS011;3073;42.660;23.316;2023-05-23T10:25:02;4.07;;;3.53;;
6089;SDS011;3073;42.660;23.316;2023-05-23T10:27:30;4.35;;;3.72;;
6089;SDS011;3073;42.660;23.316;2023-05-23T10:29:59;5.45;;;2.92;;
6089;SDS011;3073;42.660;23.316;2023-05-23T10:32:26;5.68;;;2.72;;
6089;SDS011;3073;42.660;23.316;2023-05-23T10:34:55;3.55;;;2.42;;
6089;SDS011;3073;42.660;23.316;2023-05-23T10:37:26;7.15;;;3.08;;
6089;SDS011;3073;42.660;23.316;2023-05-23T10:40:00;5.82;;;3.10;;
6089;SDS011;3073;42.660;23.316;2023-05-23T10:42:34;5.78;;;2.90;;
6089;SDS011;3073;42.660;23.316;2023-05-23T10:45:15;6.85;;;3.35;;
6089;SDS011;3073;42.660;23.316;2023-05-23T10:47:43;4.68;;;2.63;;
6089;SDS011;3073;42.660;23.316;2023-05-23T10:50:13;5.47;;;2.95;;
6089;SDS011;3073;42.660;23.316;2023-05-23T10:52:42;10.95;;;3.20;;
6089;SDS011;3073;42.660;23.316;2023-05-23T10:55:13;3.13;;;2.67;;
6089;SDS011;3073;42.660;23.316;2023-05-23T10:57:42;4.53;;;2.92;;
6089;SDS011;3073;42.660;23.316;2023-05-23T11:00:14;6.13;;;3.13;;
6089;SDS011;3073;42.660;23.316;2023-05-23T11:02:52;3.95;;;3.08;;
6089;SDS011;3073;42.660;23.316;2023-05-23T11:05:20;3.90;;;2.72;;
6089;SDS011;3073;42.660;23.316;2023-05-23T11:08:07;4.97;;;3.78;;
6089;SDS011;3073;42.660;23.316;2023-05-23T11:10:51;3.72;;;2.45;;
6089;SDS011;3073;42.660;23.316;2023-05-23T11:13:20;4.95;;;3.40;;
6089;SDS011;3073;42.660;23.316;2023-05-23T11:15:49;4.70;;;2.80;;
6089;SDS011;3073;42.660;23.316;2023-05-23T11:18:20;4.53;;;2.88;;
6089;SDS011;3073;42.660;23.316;2023-05-23T11:20:49;4.32;;;2.97;;
6089;SDS011;3073;42.660;23.316;2023-05-23T11:23:18;6.10;;;3.08;;
6089;SDS011;3073;42.660;23.316;2023-05-23T11:25:47;5.60;;;2.63;;
6089;SDS011;3073;42.660;23.316;2023-05-23T11:28:16;4.72;;;3.45;;
6089;SDS011;3073;42.660;23.316;2023-05-23T11:30:44;4.65;;;2.88;;
6089;SDS011;3073;42.660;23.316;2023-05-23T11:33:15;5.05;;;3.03;;
6089;SDS011;3073;42.660;23.316;2023-05-23T11:35:43;5.88;;;2.78;;
6089;SDS011;3073;42.660;23.316;2023-05-23T11:38:11;3.00;;;2.60;;
6089;SDS011;3073;42.660;23.316;2023-05-23T11:40:40;6.85;;;3.17;;
6089;SDS011;3073;42.660;23.316;2023-05-23T11:43:08;5.15;;;2.83;;
6089;SDS011;3073;42.660;23.316;2023-05-23T11:45:36;4.78;;;2.88;;
6089;SDS011;3073;42.660;23.316;2023-05-23T11:48:07;3.92;;;2.65;;
6089;SDS011;3073;42.660;23.316;2023-05-23T11:50:43;4.03;;;2.70;;
6089;SDS011;3073;42.660;23.316;2023-05-23T11:53:12;3.53;;;2.60;;
6089;SDS011;3073;42.660;23.316;2023-05-23T11:55:46;4.20;;;2.80;;
6089;SDS011;3073;42.660;23.316;2023-05-23T11:58:14;5.95;;;2.90;;
6089;SDS011;3073;42.660;23.316;2023-05-23T12:00:44;4.30;;;2.45;;
6089;SDS011;3073;42.660;23.316;2023-05-23T12:03:12;4.68;;;2.83;;
6089;SDS011;3073;42.660;23.316;2023-05-23T12:05:38;2.78;;;2.58;;
6089;SDS011;3073;42.660;23.316;2023-05-23T12:08:11;3.78;;;3.35;;
6089;SDS011;3073;42.660;23.316;2023-05-23T12:10:47;3.55;;;2.30;;
6089;SDS011;3073;42.660;23.316;2023-05-23T12:13:15;5.13;;;2.85;;
6089;SDS011;3073;42.660;23.316;2023-05-23T12:15:42;6.28;;;2.95;;
6089;SDS011;3073;42.660;23.316;2023-05-23T12:18:08;3.42;;;2.75;;
6089;SDS011;3073;42.660;23.316;2023-05-23T12:20:37;5.10;;;2.53;;
6089;SDS011;3073;42.660;23.316;2023-05-23T12:23:05;8.55;;;3.63;;
6089;SDS011;3073;42.660;23.316;2023-05-23T12:25:36;3.35;;;2.80;;
6089;SDS011;3073;42.660;23.316;2023-05-23T12:28:03;3.47;;;2.42;;
6089;SDS011;3073;42.660;23.316;2023-05-23T12:30:39;5.13;;;2.78;;
6089;SDS011;3073;42.660;23.316;2023-05-23T12:33:09;3.67;;;2.47;;
6089;SDS011;3073;42.660;23.316;2023-05-23T12:35:36;5.72;;;3.03;;
6089;SDS011;3073;42.660;23.316;2023-05-23T12:38:05;4.53;;;2.50;;
6089;SDS011;3073;42.660;23.316;2023-05-23T12:40:32;2.45;;;2.13;;
6089;SDS011;3073;42.660;23.316;2023-05-23T12:42:59;3.25;;;2.50;;
6089;SDS011;3073;42.660;23.316;2023-05-23T12:45:30;5.10;;;2.90;;
6089;SDS011;3073;42.660;23.316;2023-05-23T12:47:58;4.82;;;2.83;;
6089;SDS011;3073;42.660;23.316;2023-05-23T12:50:25;3.22;;;2.67;;
6089;SDS011;3073;42.660;23.316;2023-05-23T12:52:52;4.10;;;2.95;;
6089;SDS011;3073;42.660;23.316;2023-05-23T12:55:20;4.95;;;2.70;;
6089;SDS011;3073;42.660;23.316;2023-05-23T12:57:47;3.38;;;2.30;;
6089;SDS011;3073;42.660;23.316;2023-05-23T13:00:14;4.80;;;2.78;;
6089;SDS011;3073;42.660;23.316;2023-05-23T13:02:41;4.47;;;2.50;;
6089;SDS011;3073;42.660;23.316;2023-05-23T13:05:08;6.63;;;2.42;;
6089;SDS011;3073;42.660;23.316;2023-05-23T13:07:35;4.30;;;2.97;;
6089;SDS011;3073;42.660;23.316;2023-05-23T13:10:03;5.32;;;2.80;;
6089;SDS011;3073;42.660;23.316;2023-05-23T13:12:32;4.32;;;3.25;;
6089;SDS011;3073;42.660;23.316;2023-05-23T13:14:58;5.78;;;3.13;;
6089;SDS011;3073;42.660;23.316;2023-05-23T13:17:25;6.47;;;2.60;;
6089;SDS011;3073;42.660;23.316;2023-05-23T13:19:52;3.15;;;2.33;;
6089;SDS011;3073;42.660;23.316;2023-05-23T13:22:19;3.55;;;2.33;;
6089;SDS011;3073;42.660;23.316;2023-05-23T13:24:46;6.18;;;3.13;;
6089;SDS011;3073;42.660;23.316;2023-05-23T13:27:13;2.53;;;2.22;;
6089;SDS011;3073;42.660;23.316;2023-05-23T13:29:41;3.35;;;2.35;;
6089;SDS011;3073;42.660;23.316;2023-05-23T13:32:08;4.97;;;2.70;;
6089;SDS011;3073;42.660;23.316;2023-05-23T13:34:35;4.55;;;2.55;;
6089;SDS011;3073;42.660;23.316;2023-05-23T13:37:02;3.88;;;2.55;;
6089;SDS011;3073;42.660;23.316;2023-05-23T13:39:29;3.30;;;2.63;;
6089;SDS011;3073;42.660;23.316;2023-05-23T13:41:56;3.63;;;2.60;;
6089;SDS011;3073;42.660;23.316;2023-05-23T13:44:23;3.40;;;2.78;;
6089;SDS011;3073;42.660;23.316;2023-05-23T13:46:51;3.75;;;2.55;;
6089;SDS011;3073;42.660;23.316;2023-05-23T13:49:18;5.05;;;2.72;;
6089;SDS011;3073;42.660;23.316;2023-05-23T13:51:44;5.00;;;2.85;;
6089;SDS011;3073;42.660;23.316;2023-05-23T13:54:11;3.45;;;2.40;;
6089;SDS011;3073;42.660;23.316;2023-05-23T13:56:38;4.18;;;3.10;;
6089;SDS011;3073;42.660;23.316;2023-05-23T13:59:05;4.05;;;2.97;;
6089;SDS011;3073;42.660;23.316;2023-05-23T14:01:32;6.82;;;3.03;;
6089;SDS011;3073;42.660;23.316;2023-05-23T14:04:01;4.15;;;2.38;;
6089;SDS011;3073;42.660;23.316;2023-05-23T14:06:29;5.30;;;2.90;;
6089;SDS011;3073;42.660;23.316;2023-05-23T14:08:56;2.92;;;2.35;;
6089;SDS011;3073;42.660;23.316;2023-05-23T14:11:26;3.55;;;2.50;;
6089;SDS011;3073;42.660;23.316;2023-05-23T14:13:53;3.17;;;2.53;;
6089;SDS011;3073;42.660;23.316;2023-05-23T14:16:20;9.45;;;3.80;;
6089;SDS011;3073;42.660;23.316;2023-05-23T14:18:46;2.75;;;2.25;;
6089;SDS011;3073;42.660;23.316;2023-05-23T14:21:15;3.83;;;3.17;;
6089;SDS011;3073;42.660;23.316;2023-05-23T14:23:42;3.55;;;2.70;;
6089;SDS011;3073;42.660;23.316;2023-05-23T14:26:09;2.75;;;2.45;;
6089;SDS011;3073;42.660;23.316;2023-05-23T14:28:36;3.13;;;2.80;;
6089;SDS011;3073;42.660;23.316;2023-05-23T14:31:05;4.43;;;2.83;;
6089;SDS011;3073;42.660;23.316;2023-05-23T14:33:32;3.10;;;2.40;;
6089;SDS011;3073;42.660;23.316;2023-05-23T14:35:59;4.65;;;3.47;;
6089;SDS011;3073;42.660;23.316;2023-05-23T14:38:27;3.35;;;2.90;;
6089;SDS011;3073;42.660;23.316;2023-05-23T14:40:54;7.15;;;3.15;;
6089;SDS011;3073;42.660;23.316;2023-05-23T14:43:21;3.67;;;2.20;;
6089;SDS011;3073;42.660;23.316;2023-05-23T14:45:47;4.63;;;2.60;;
6089;SDS011;3073;42.660;23.316;2023-05-23T14:48:14;6.53;;;3.20;;
6089;SDS011;3073;42.660;23.316;2023-05-23T14:50:41;4.93;;;3.55;;
6089;SDS011;3073;42.660;23.316;2023-05-23T14:53:08;5.18;;;2.72;;
6089;SDS011;3073;42.660;23.316;2023-05-23T14:55:36;6.68;;;2.58;;
6089;SDS011;3073;42.660;23.316;2023-05-23T14:58:03;5.45;;;3.10;;